sensor_id;sensor_type;location;lat;lon;timestamp;P1;durP1;ratioP1;P2;durP2;ratioP2
56523;SDS011;42422;47.540;18.712;2024-01-30T00:03:40;12.32;;;7.47;;
56523;SDS011;42422;47.540;18.712;2024-01-30T00:08:30;15.07;;;6.73;;
56523;SDS011;42422;47.540;18.712;2024-01-30T00:13:21;15.47;;;6.47;;
56523;SDS011;42422;47.540;18.712;2024-01-30T00:18:11;12.50;;;7.03;;
56523;SDS011;42422;47.540;18.712;2024-01-30T00:23:01;14.38;;;6.40;;
56523;SDS011;42422;47.540;18.712;2024-01-30T00:27:52;13.33;;;7.03;;
56523;SDS011;42422;47.540;18.712;2024-01-30T00:32:42;16.58;;;7.13;;
56523;SDS011;42422;47.540;18.712;2024-01-30T00:37:34;9.50;;;5.80;;
56523;SDS011;42422;47.540;18.712;2024-01-30T00:42:25;16.50;;;6.90;;
56523;SDS011;42422;47.540;18.712;2024-01-30T00:47:15;12.80;;;7.30;;
56523;SDS011;42422;47.540;18.712;2024-01-30T00:52:06;10.50;;;6.68;;
56523;SDS011;42422;47.540;18.712;2024-01-30T00:56:56;15.63;;;6.43;;
56523;SDS011;42422;47.540;18.712;2024-01-30T01:01:47;15.70;;;7.40;;
56523;SDS011;42422;47.540;18.712;2024-01-30T01:06:37;16.20;;;6.45;;
56523;SDS011;42422;47.540;18.712;2024-01-30T01:11:28;13.37;;;6.47;;
56523;SDS011;42422;47.540;18.712;2024-01-30T01:16:19;16.87;;;7.27;;
56523;SDS011;42422;47.540;18.712;2024-01-30T01:21:09;15.70;;;7.33;;
56523;SDS011;42422;47.540;18.712;2024-01-30T01:25:59;17.20;;;7.63;;
56523;SDS011;42422;47.540;18.712;2024-01-30T01:28:25;14.17;;;6.63;;
56523;SDS011;42422;47.540;18.712;2024-01-30T01:33:16;17.03;;;7.37;;
56523;SDS011;42422;47.540;18.712;2024-01-30T01:38:07;10.50;;;5.65;;
56523;SDS011;42422;47.540;18.712;2024-01-30T01:42:57;13.20;;;6.23;;
56523;SDS011;42422;47.540;18.712;2024-01-30T01:47:50;18.36;;;7.60;;
56523;SDS011;42422;47.540;18.712;2024-01-30T01:50:16;14.00;;;7.63;;
56523;SDS011;42422;47.540;18.712;2024-01-30T01:52:45;21.83;;;8.40;;
56523;SDS011;42422;47.540;18.712;2024-01-30T01:55:11;16.00;;;7.27;;
56523;SDS011;42422;47.540;18.712;2024-01-30T01:57:37;19.60;;;8.00;;
56523;SDS011;42422;47.540;18.712;2024-01-30T02:02:30;16.77;;;7.47;;
56523;SDS011;42422;47.540;18.712;2024-01-30T02:04:56;18.43;;;9.27;;
56523;SDS011;42422;47.540;18.712;2024-01-30T02:07:21;15.73;;;8.20;;
56523;SDS011;42422;47.540;18.712;2024-01-30T02:12:12;28.03;;;9.40;;
56523;SDS011;42422;47.540;18.712;2024-01-30T02:17:02;16.07;;;7.90;;
56523;SDS011;42422;47.540;18.712;2024-01-30T02:21:52;21.27;;;7.25;;
56523;SDS011;42422;47.540;18.712;2024-01-30T02:26:43;17.87;;;5.47;;
56523;SDS011;42422;47.540;18.712;2024-01-30T02:31:34;9.93;;;6.28;;
56523;SDS011;42422;47.540;18.712;2024-01-30T02:36:24;26.83;;;11.37;;
56523;SDS011;42422;47.540;18.712;2024-01-30T02:41:14;23.22;;;10.36;;
56523;SDS011;42422;47.540;18.712;2024-01-30T02:46:05;14.27;;;8.05;;
56523;SDS011;42422;47.540;18.712;2024-01-30T02:50:55;16.57;;;7.57;;
56523;SDS011;42422;47.540;18.712;2024-01-30T02:55:46;15.47;;;6.43;;
56523;SDS011;42422;47.540;18.712;2024-01-30T03:00:37;16.07;;;7.63;;
56523;SDS011;42422;47.540;18.712;2024-01-30T03:05:27;9.65;;;5.75;;
56523;SDS011;42422;47.540;18.712;2024-01-30T03:10:17;15.77;;;6.87;;
56523;SDS011;42422;47.540;18.712;2024-01-30T03:15:08;16.40;;;6.45;;
56523;SDS011;42422;47.540;18.712;2024-01-30T03:17:34;18.83;;;7.77;;
56523;SDS011;42422;47.540;18.712;2024-01-30T03:20:01;17.10;;;7.87;;
56523;SDS011;42422;47.540;18.712;2024-01-30T03:24:51;15.97;;;7.90;;
56523;SDS011;42422;47.540;18.712;2024-01-30T03:29:42;13.93;;;6.83;;
56523;SDS011;42422;47.540;18.712;2024-01-30T03:34:32;18.60;;;7.23;;
56523;SDS011;42422;47.540;18.712;2024-01-30T03:39:23;12.55;;;6.40;;
56523;SDS011;42422;47.540;18.712;2024-01-30T03:44:13;18.10;;;8.70;;
56523;SDS011;42422;47.540;18.712;2024-01-30T03:49:03;19.02;;;7.82;;
56523;SDS011;42422;47.540;18.712;2024-01-30T03:53:53;17.80;;;9.13;;
56523;SDS011;42422;47.540;18.712;2024-01-30T03:58:44;20.13;;;8.40;;
56523;SDS011;42422;47.540;18.712;2024-01-30T04:03:34;14.60;;;8.70;;
56523;SDS011;42422;47.540;18.712;2024-01-30T04:08:24;16.93;;;8.37;;
56523;SDS011;42422;47.540;18.712;2024-01-30T04:13:15;19.90;;;8.00;;
56523;SDS011;42422;47.540;18.712;2024-01-30T04:18:05;16.20;;;7.57;;
56523;SDS011;42422;47.540;18.712;2024-01-30T04:22:55;18.07;;;8.03;;
56523;SDS011;42422;47.540;18.712;2024-01-30T04:27:46;16.46;;;6.42;;
56523;SDS011;42422;47.540;18.712;2024-01-30T04:32:36;17.70;;;7.38;;
56523;SDS011;42422;47.540;18.712;2024-01-30T04:37:27;10.60;;;7.00;;
56523;SDS011;42422;47.540;18.712;2024-01-30T04:42:17;26.13;;;10.07;;
56523;SDS011;42422;47.540;18.712;2024-01-30T04:47:08;18.27;;;8.20;;
56523;SDS011;42422;47.540;18.712;2024-01-30T04:51:59;13.85;;;7.20;;
56523;SDS011;42422;47.540;18.712;2024-01-30T04:56:49;11.82;;;7.28;;
56523;SDS011;42422;47.540;18.712;2024-01-30T05:01:39;18.07;;;7.43;;
56523;SDS011;42422;47.540;18.712;2024-01-30T05:06:30;15.05;;;6.47;;
56523;SDS011;42422;47.540;18.712;2024-01-30T05:11:20;12.52;;;6.47;;
56523;SDS011;42422;47.540;18.712;2024-01-30T05:16:10;13.17;;;7.10;;
56523;SDS011;42422;47.540;18.712;2024-01-30T05:21:01;12.70;;;7.60;;
56523;SDS011;42422;47.540;18.712;2024-01-30T05:23:27;12.40;;;6.93;;
56523;SDS011;42422;47.540;18.712;2024-01-30T05:28:17;12.67;;;6.83;;
56523;SDS011;42422;47.540;18.712;2024-01-30T05:33:07;12.38;;;7.15;;
56523;SDS011;42422;47.540;18.712;2024-01-30T05:37:58;18.50;;;8.77;;
56523;SDS011;42422;47.540;18.712;2024-01-30T05:42:48;19.37;;;7.27;;
56523;SDS011;42422;47.540;18.712;2024-01-30T05:47:38;19.48;;;8.93;;
56523;SDS011;42422;47.540;18.712;2024-01-30T05:52:29;16.57;;;9.57;;
56523;SDS011;42422;47.540;18.712;2024-01-30T05:57:19;18.53;;;8.87;;
56523;SDS011;42422;47.540;18.712;2024-01-30T06:02:10;16.07;;;7.13;;
56523;SDS011;42422;47.540;18.712;2024-01-30T06:07:00;15.40;;;8.77;;
56523;SDS011;42422;47.540;18.712;2024-01-30T06:09:26;17.67;;;9.80;;
56523;SDS011;42422;47.540;18.712;2024-01-30T06:14:17;21.67;;;9.02;;
56523;SDS011;42422;47.540;18.712;2024-01-30T06:19:07;20.45;;;7.10;;
56523;SDS011;42422;47.540;18.712;2024-01-30T06:24:01;19.37;;;8.70;;
56523;SDS011;42422;47.540;18.712;2024-01-30T06:28:52;16.77;;;8.83;;
56523;SDS011;42422;47.540;18.712;2024-01-30T06:33:42;28.97;;;14.73;;
56523;SDS011;42422;47.540;18.712;2024-01-30T06:38:33;30.20;;;13.80;;
56523;SDS011;42422;47.540;18.712;2024-01-30T06:43:23;19.63;;;9.50;;
56523;SDS011;42422;47.540;18.712;2024-01-30T06:48:13;16.13;;;7.75;;
56523;SDS011;42422;47.540;18.712;2024-01-30T06:53:04;18.08;;;6.93;;
56523;SDS011;42422;47.540;18.712;2024-01-30T06:57:54;15.38;;;8.50;;
56523;SDS011;42422;47.540;18.712;2024-01-30T07:02:44;19.93;;;8.70;;
56523;SDS011;42422;47.540;18.712;2024-01-30T07:07:35;20.92;;;10.50;;
56523;SDS011;42422;47.540;18.712;2024-01-30T07:12:25;30.80;;;12.48;;
56523;SDS011;42422;47.540;18.712;2024-01-30T07:17:16;22.43;;;12.53;;
56523;SDS011;42422;47.540;18.712;2024-01-30T07:22:06;16.05;;;7.47;;
56523;SDS011;42422;47.540;18.712;2024-01-30T07:26:56;22.67;;;9.55;;
56523;SDS011;42422;47.540;18.712;2024-01-30T07:31:47;18.67;;;8.77;;
56523;SDS011;42422;47.540;18.712;2024-01-30T07:36:37;13.80;;;7.00;;
56523;SDS011;42422;47.540;18.712;2024-01-30T07:41:28;17.60;;;7.52;;
56523;SDS011;42422;47.540;18.712;2024-01-30T07:46:18;13.83;;;7.67;;
56523;SDS011;42422;47.540;18.712;2024-01-30T07:51:09;11.95;;;6.35;;
56523;SDS011;42422;47.540;18.712;2024-01-30T07:55:59;18.27;;;8.03;;
56523;SDS011;42422;47.540;18.712;2024-01-30T08:00:52;11.85;;;7.55;;
56523;SDS011;42422;47.540;18.712;2024-01-30T08:05:43;16.77;;;8.47;;
56523;SDS011;42422;47.540;18.712;2024-01-30T08:10:33;18.50;;;9.17;;
56523;SDS011;42422;47.540;18.712;2024-01-30T08:15:23;17.25;;;8.90;;
56523;SDS011;42422;47.540;18.712;2024-01-30T08:20:14;17.56;;;6.86;;
56523;SDS011;42422;47.540;18.712;2024-01-30T08:25:05;17.23;;;8.63;;
56523;SDS011;42422;47.540;18.712;2024-01-30T08:29:55;20.23;;;9.17;;
56523;SDS011;42422;47.540;18.712;2024-01-30T08:34:46;19.20;;;7.24;;
56523;SDS011;42422;47.540;18.712;2024-01-30T08:39:37;25.80;;;6.73;;
56523;SDS011;42422;47.540;18.712;2024-01-30T08:44:27;20.40;;;8.90;;
56523;SDS011;42422;47.540;18.712;2024-01-30T08:49:19;17.70;;;9.37;;
56523;SDS011;42422;47.540;18.712;2024-01-30T08:51:45;29.13;;;12.07;;
56523;SDS011;42422;47.540;18.712;2024-01-30T08:56:35;19.02;;;9.32;;
56523;SDS011;42422;47.540;18.712;2024-01-30T09:01:26;14.68;;;7.03;;
56523;SDS011;42422;47.540;18.712;2024-01-30T09:06:16;20.37;;;9.50;;
56523;SDS011;42422;47.540;18.712;2024-01-30T09:11:13;13.38;;;7.90;;
56523;SDS011;42422;47.540;18.712;2024-01-30T09:13:38;20.85;;;8.77;;
56523;SDS011;42422;47.540;18.712;2024-01-30T09:18:29;19.08;;;9.18;;
56523;SDS011;42422;47.540;18.712;2024-01-30T09:23:19;21.70;;;7.85;;
56523;SDS011;42422;47.540;18.712;2024-01-30T09:28:10;28.77;;;9.65;;
56523;SDS011;42422;47.540;18.712;2024-01-30T09:33:00;19.27;;;10.15;;
56523;SDS011;42422;47.540;18.712;2024-01-30T09:37:50;23.15;;;11.00;;
56523;SDS011;42422;47.540;18.712;2024-01-30T09:40:17;15.95;;;8.70;;
56523;SDS011;42422;47.540;18.712;2024-01-30T09:42:44;15.05;;;8.02;;
56523;SDS011;42422;47.540;18.712;2024-01-30T09:45:10;24.50;;;11.65;;
56523;SDS011;42422;47.540;18.712;2024-01-30T09:47:41;18.38;;;9.75;;
56523;SDS011;42422;47.540;18.712;2024-01-30T09:50:10;21.77;;;9.88;;
56523;SDS011;42422;47.540;18.712;2024-01-30T09:55:01;23.20;;;9.38;;
56523;SDS011;42422;47.540;18.712;2024-01-30T09:59:51;22.67;;;9.65;;
56523;SDS011;42422;47.540;18.712;2024-01-30T10:02:19;18.77;;;9.95;;
56523;SDS011;42422;47.540;18.712;2024-01-30T10:07:09;11.60;;;7.32;;
56523;SDS011;42422;47.540;18.712;2024-01-30T10:09:36;20.27;;;10.43;;
56523;SDS011;42422;47.540;18.712;2024-01-30T10:12:02;19.52;;;8.77;;
56523;SDS011;42422;47.540;18.712;2024-01-30T10:14:28;16.75;;;9.00;;
56523;SDS011;42422;47.540;18.712;2024-01-30T10:19:19;19.30;;;9.00;;
56523;SDS011;42422;47.540;18.712;2024-01-30T10:24:09;16.65;;;7.78;;
56523;SDS011;42422;47.540;18.712;2024-01-30T10:31:27;15.50;;;7.06;;
56523;SDS011;42422;47.540;18.712;2024-01-30T10:36:18;23.04;;;8.52;;
56523;SDS011;42422;47.540;18.712;2024-01-30T10:41:11;10.13;;;6.88;;
56523;SDS011;42422;47.540;18.712;2024-01-30T10:43:40;16.65;;;8.13;;
56523;SDS011;42422;47.540;18.712;2024-01-30T10:46:17;12.55;;;7.47;;
56523;SDS011;42422;47.540;18.712;2024-01-30T10:48:43;18.30;;;8.68;;
56523;SDS011;42422;47.540;18.712;2024-01-30T10:51:11;17.08;;;8.55;;
56523;SDS011;42422;47.540;18.712;2024-01-30T10:53:38;16.67;;;8.30;;
56523;SDS011;42422;47.540;18.712;2024-01-30T10:58:29;18.70;;;6.25;;
56523;SDS011;42422;47.540;18.712;2024-01-30T11:03:19;20.48;;;9.77;;
56523;SDS011;42422;47.540;18.712;2024-01-30T11:05:48;13.35;;;7.70;;
56523;SDS011;42422;47.540;18.712;2024-01-30T11:08:14;18.65;;;8.52;;
56523;SDS011;42422;47.540;18.712;2024-01-30T11:13:13;20.65;;;10.38;;
56523;SDS011;42422;47.540;18.712;2024-01-30T11:15:38;21.35;;;9.95;;
56523;SDS011;42422;47.540;18.712;2024-01-30T11:20:31;23.23;;;9.88;;
56523;SDS011;42422;47.540;18.712;2024-01-30T11:22:57;22.48;;;10.40;;
56523;SDS011;42422;47.540;18.712;2024-01-30T11:27:49;18.17;;;9.23;;
56523;SDS011;42422;47.540;18.712;2024-01-30T11:30:24;21.08;;;9.95;;
56523;SDS011;42422;47.540;18.712;2024-01-30T11:35:24;16.98;;;7.90;;
56523;SDS011;42422;47.540;18.712;2024-01-30T11:40:15;17.08;;;8.60;;
56523;SDS011;42422;47.540;18.712;2024-01-30T11:45:06;15.16;;;7.80;;
56523;SDS011;42422;47.540;18.712;2024-01-30T11:49:57;16.15;;;8.57;;
56523;SDS011;42422;47.540;18.712;2024-01-30T11:54:47;18.45;;;8.10;;
56523;SDS011;42422;47.540;18.712;2024-01-30T11:59:38;22.05;;;8.40;;
56523;SDS011;42422;47.540;18.712;2024-01-30T12:02:03;18.70;;;10.68;;
56523;SDS011;42422;47.540;18.712;2024-01-30T12:06:54;17.58;;;8.43;;
56523;SDS011;42422;47.540;18.712;2024-01-30T12:16:35;25.88;;;11.25;;
56523;SDS011;42422;47.540;18.712;2024-01-30T12:19:00;20.45;;;10.13;;
56523;SDS011;42422;47.540;18.712;2024-01-30T12:21:29;20.25;;;10.07;;
56523;SDS011;42422;47.540;18.712;2024-01-30T12:26:19;21.73;;;9.35;;
56523;SDS011;42422;47.540;18.712;2024-01-30T12:28:48;15.77;;;8.23;;
56523;SDS011;42422;47.540;18.712;2024-01-30T12:31:14;17.48;;;9.23;;
56523;SDS011;42422;47.540;18.712;2024-01-30T12:36:04;17.70;;;9.20;;
56523;SDS011;42422;47.540;18.712;2024-01-30T12:38:29;22.08;;;10.00;;
56523;SDS011;42422;47.540;18.712;2024-01-30T12:40:55;20.98;;;9.90;;
56523;SDS011;42422;47.540;18.712;2024-01-30T12:45:46;18.77;;;8.90;;
56523;SDS011;42422;47.540;18.712;2024-01-30T12:48:11;26.73;;;11.93;;
56523;SDS011;42422;47.540;18.712;2024-01-30T12:50:37;22.50;;;11.07;;
56523;SDS011;42422;47.540;18.712;2024-01-30T12:55:27;23.00;;;10.73;;
56523;SDS011;42422;47.540;18.712;2024-01-30T13:00:18;23.52;;;11.23;;
56523;SDS011;42422;47.540;18.712;2024-01-30T13:05:09;19.90;;;8.98;;
56523;SDS011;42422;47.540;18.712;2024-01-30T13:10:00;19.25;;;9.10;;
56523;SDS011;42422;47.540;18.712;2024-01-30T13:12:28;26.55;;;10.77;;
56523;SDS011;42422;47.540;18.712;2024-01-30T13:17:19;25.96;;;11.10;;
56523;SDS011;42422;47.540;18.712;2024-01-30T13:22:09;22.55;;;8.07;;
56523;SDS011;42422;47.540;18.712;2024-01-30T13:24:34;20.40;;;8.77;;
56523;SDS011;42422;47.540;18.712;2024-01-30T13:29:24;21.38;;;8.30;;
56523;SDS011;42422;47.540;18.712;2024-01-30T13:34:15;21.35;;;7.95;;
56523;SDS011;42422;47.540;18.712;2024-01-30T13:36:40;17.85;;;8.18;;
56523;SDS011;42422;47.540;18.712;2024-01-30T13:41:35;14.45;;;7.20;;
56523;SDS011;42422;47.540;18.712;2024-01-30T13:46:28;13.65;;;6.65;;
56523;SDS011;42422;47.540;18.712;2024-01-30T13:51:18;21.58;;;7.38;;
56523;SDS011;42422;47.540;18.712;2024-01-30T13:53:43;17.67;;;7.05;;
56523;SDS011;42422;47.540;18.712;2024-01-30T13:58:34;11.50;;;6.18;;
56523;SDS011;42422;47.540;18.712;2024-01-30T14:01:01;12.55;;;6.15;;
56523;SDS011;42422;47.540;18.712;2024-01-30T14:05:51;20.35;;;7.82;;
56523;SDS011;42422;47.540;18.712;2024-01-30T14:08:16;17.55;;;8.60;;
56523;SDS011;42422;47.540;18.712;2024-01-30T14:13:07;21.12;;;8.90;;
56523;SDS011;42422;47.540;18.712;2024-01-30T14:17:57;26.00;;;12.25;;
56523;SDS011;42422;47.540;18.712;2024-01-30T14:22:47;16.80;;;7.88;;
56523;SDS011;42422;47.540;18.712;2024-01-30T14:27:38;18.92;;;8.07;;
56523;SDS011;42422;47.540;18.712;2024-01-30T14:32:28;21.70;;;8.25;;
56523;SDS011;42422;47.540;18.712;2024-01-30T14:37:19;18.38;;;8.10;;
56523;SDS011;42422;47.540;18.712;2024-01-30T14:39:45;19.98;;;8.77;;
56523;SDS011;42422;47.540;18.712;2024-01-30T14:44:35;15.57;;;8.07;;
56523;SDS011;42422;47.540;18.712;2024-01-30T14:49:25;14.02;;;8.30;;
56523;SDS011;42422;47.540;18.712;2024-01-30T14:54:16;23.67;;;9.27;;
56523;SDS011;42422;47.540;18.712;2024-01-30T14:59:06;20.23;;;9.05;;
56523;SDS011;42422;47.540;18.712;2024-01-30T15:03:57;14.93;;;8.23;;
56523;SDS011;42422;47.540;18.712;2024-01-30T15:08:50;16.23;;;7.70;;
56523;SDS011;42422;47.540;18.712;2024-01-30T15:13:41;15.38;;;7.20;;
56523;SDS011;42422;47.540;18.712;2024-01-30T15:18:31;21.12;;;10.48;;
56523;SDS011;42422;47.540;18.712;2024-01-30T15:23:21;16.70;;;8.15;;
56523;SDS011;42422;47.540;18.712;2024-01-30T15:28:12;20.38;;;8.98;;
56523;SDS011;42422;47.540;18.712;2024-01-30T15:30:38;16.25;;;7.88;;
56523;SDS011;42422;47.540;18.712;2024-01-30T15:35:29;16.42;;;7.36;;
56523;SDS011;42422;47.540;18.712;2024-01-30T15:40:19;12.45;;;6.35;;
56523;SDS011;42422;47.540;18.712;2024-01-30T15:42:45;18.27;;;8.02;;
56523;SDS011;42422;47.540;18.712;2024-01-30T15:47:35;15.73;;;7.53;;
56523;SDS011;42422;47.540;18.712;2024-01-30T15:52:27;17.25;;;6.72;;
56523;SDS011;42422;47.540;18.712;2024-01-30T15:57:17;10.82;;;5.44;;
56523;SDS011;42422;47.540;18.712;2024-01-30T16:02:07;14.98;;;7.18;;
56523;SDS011;42422;47.540;18.712;2024-01-30T16:06:57;22.77;;;11.63;;
56523;SDS011;42422;47.540;18.712;2024-01-30T16:11:48;14.18;;;6.97;;
56523;SDS011;42422;47.540;18.712;2024-01-30T16:16:38;13.30;;;7.38;;
56523;SDS011;42422;47.540;18.712;2024-01-30T16:21:29;14.40;;;6.60;;
56523;SDS011;42422;47.540;18.712;2024-01-30T16:26:20;15.90;;;7.70;;
56523;SDS011;42422;47.540;18.712;2024-01-30T16:31:11;16.83;;;7.35;;
56523;SDS011;42422;47.540;18.712;2024-01-30T16:36:01;17.80;;;8.00;;
56523;SDS011;42422;47.540;18.712;2024-01-30T16:40:52;11.63;;;6.57;;
56523;SDS011;42422;47.540;18.712;2024-01-30T16:45:43;13.53;;;7.03;;
56523;SDS011;42422;47.540;18.712;2024-01-30T16:50:39;13.97;;;7.57;;
56523;SDS011;42422;47.540;18.712;2024-01-30T16:55:30;17.40;;;8.80;;
56523;SDS011;42422;47.540;18.712;2024-01-30T17:00:20;13.93;;;7.33;;
56523;SDS011;42422;47.540;18.712;2024-01-30T17:05:10;25.13;;;10.60;;
56523;SDS011;42422;47.540;18.712;2024-01-30T17:10:01;28.23;;;11.10;;
56523;SDS011;42422;47.540;18.712;2024-01-30T17:14:52;33.96;;;16.70;;
56523;SDS011;42422;47.540;18.712;2024-01-30T17:19:42;25.80;;;11.43;;
56523;SDS011;42422;47.540;18.712;2024-01-30T17:24:32;28.53;;;13.07;;
56523;SDS011;42422;47.540;18.712;2024-01-30T17:29:23;32.90;;;13.73;;
56523;SDS011;42422;47.540;18.712;2024-01-30T17:34:15;25.90;;;13.57;;
56523;SDS011;42422;47.540;18.712;2024-01-30T17:39:05;31.30;;;13.60;;
56523;SDS011;42422;47.540;18.712;2024-01-30T17:41:32;30.47;;;13.33;;
56523;SDS011;42422;47.540;18.712;2024-01-30T17:46:23;40.63;;;18.43;;
56523;SDS011;42422;47.540;18.712;2024-01-30T17:51:15;40.77;;;16.60;;
56523;SDS011;42422;47.540;18.712;2024-01-30T17:56:05;36.30;;;15.52;;
56523;SDS011;42422;47.540;18.712;2024-01-30T18:00:56;25.75;;;12.95;;
56523;SDS011;42422;47.540;18.712;2024-01-30T18:03:22;23.97;;;11.63;;
56523;SDS011;42422;47.540;18.712;2024-01-30T18:05:49;20.50;;;11.03;;
56523;SDS011;42422;47.540;18.712;2024-01-30T18:10:39;19.00;;;9.33;;
56523;SDS011;42422;47.540;18.712;2024-01-30T18:15:30;26.23;;;10.77;;
56523;SDS011;42422;47.540;18.712;2024-01-30T18:20:21;28.40;;;14.13;;
56523;SDS011;42422;47.540;18.712;2024-01-30T18:25:11;22.83;;;12.87;;
56523;SDS011;42422;47.540;18.712;2024-01-30T18:30:02;26.40;;;15.20;;
56523;SDS011;42422;47.540;18.712;2024-01-30T18:34:52;32.53;;;14.48;;
56523;SDS011;42422;47.540;18.712;2024-01-30T18:39:43;24.13;;;11.07;;
56523;SDS011;42422;47.540;18.712;2024-01-30T18:42:10;25.17;;;11.63;;
56523;SDS011;42422;47.540;18.712;2024-01-30T18:47:01;26.23;;;11.40;;
56523;SDS011;42422;47.540;18.712;2024-01-30T18:51:52;23.63;;;10.77;;
56523;SDS011;42422;47.540;18.712;2024-01-30T18:54:18;23.60;;;11.57;;
56523;SDS011;42422;47.540;18.712;2024-01-30T18:59:09;22.73;;;11.50;;
56523;SDS011;42422;47.540;18.712;2024-01-30T19:01:36;21.70;;;12.27;;
56523;SDS011;42422;47.540;18.712;2024-01-30T19:04:04;25.23;;;12.77;;
56523;SDS011;42422;47.540;18.712;2024-01-30T19:08:55;29.20;;;12.73;;
56523;SDS011;42422;47.540;18.712;2024-01-30T19:13:46;30.47;;;12.83;;
56523;SDS011;42422;47.540;18.712;2024-01-30T19:18:38;26.80;;;12.00;;
56523;SDS011;42422;47.540;18.712;2024-01-30T19:23:29;34.60;;;14.27;;
56523;SDS011;42422;47.540;18.712;2024-01-30T19:28:20;20.63;;;12.30;;
56523;SDS011;42422;47.540;18.712;2024-01-30T19:33:11;31.73;;;15.43;;
56523;SDS011;42422;47.540;18.712;2024-01-30T19:38:02;28.57;;;13.67;;
56523;SDS011;42422;47.540;18.712;2024-01-30T19:42:53;29.90;;;16.47;;
56523;SDS011;42422;47.540;18.712;2024-01-30T19:47:44;24.00;;;12.10;;
56523;SDS011;42422;47.540;18.712;2024-01-30T19:52:35;30.13;;;12.80;;
56523;SDS011;42422;47.540;18.712;2024-01-30T19:55:04;34.40;;;14.90;;
56523;SDS011;42422;47.540;18.712;2024-01-30T19:57:31;30.77;;;15.23;;
56523;SDS011;42422;47.540;18.712;2024-01-30T20:02:21;28.37;;;14.00;;
56523;SDS011;42422;47.540;18.712;2024-01-30T20:04:49;28.73;;;14.07;;
56523;SDS011;42422;47.540;18.712;2024-01-30T20:09:42;25.42;;;12.98;;
56523;SDS011;42422;47.540;18.712;2024-01-30T20:14:32;30.38;;;14.40;;
56523;SDS011;42422;47.540;18.712;2024-01-30T20:19:25;32.80;;;15.70;;
56523;SDS011;42422;47.540;18.712;2024-01-30T20:24:16;34.17;;;13.07;;
56523;SDS011;42422;47.540;18.712;2024-01-30T20:29:06;31.60;;;15.53;;
56523;SDS011;42422;47.540;18.712;2024-01-30T20:33:57;29.53;;;14.47;;
56523;SDS011;42422;47.540;18.712;2024-01-30T20:38:48;39.90;;;17.17;;
56523;SDS011;42422;47.540;18.712;2024-01-30T20:43:40;29.07;;;13.87;;
56523;SDS011;42422;47.540;18.712;2024-01-30T20:46:06;24.97;;;13.80;;
56523;SDS011;42422;47.540;18.712;2024-01-30T20:48:32;31.43;;;16.30;;
56523;SDS011;42422;47.540;18.712;2024-01-30T20:53:23;31.30;;;14.63;;
56523;SDS011;42422;47.540;18.712;2024-01-30T20:58:14;27.53;;;12.80;;
56523;SDS011;42422;47.540;18.712;2024-01-30T21:03:05;28.97;;;13.40;;
56523;SDS011;42422;47.540;18.712;2024-01-30T21:07:55;37.80;;;14.37;;
56523;SDS011;42422;47.540;18.712;2024-01-30T21:12:46;27.26;;;12.74;;
56523;SDS011;42422;47.540;18.712;2024-01-30T21:17:36;28.90;;;15.57;;
56523;SDS011;42422;47.540;18.712;2024-01-30T21:22:27;32.30;;;12.67;;
56523;SDS011;42422;47.540;18.712;2024-01-30T21:27:17;31.27;;;13.27;;
56523;SDS011;42422;47.540;18.712;2024-01-30T21:32:08;28.47;;;12.70;;
56523;SDS011;42422;47.540;18.712;2024-01-30T21:36:59;31.00;;;13.65;;
56523;SDS011;42422;47.540;18.712;2024-01-30T21:41:49;33.27;;;14.10;;
56523;SDS011;42422;47.540;18.712;2024-01-30T21:46:39;44.40;;;13.93;;
56523;SDS011;42422;47.540;18.712;2024-01-30T21:51:30;24.52;;;12.92;;
56523;SDS011;42422;47.540;18.712;2024-01-30T21:56:20;28.50;;;12.60;;
56523;SDS011;42422;47.540;18.712;2024-01-30T22:01:11;29.50;;;13.27;;
56523;SDS011;42422;47.540;18.712;2024-01-30T22:06:03;26.55;;;14.00;;
56523;SDS011;42422;47.540;18.712;2024-01-30T22:10:54;21.56;;;11.34;;
56523;SDS011;42422;47.540;18.712;2024-01-30T22:15:47;27.50;;;12.75;;
56523;SDS011;42422;47.540;18.712;2024-01-30T22:20:37;31.95;;;14.02;;
56523;SDS011;42422;47.540;18.712;2024-01-30T22:25:27;28.47;;;12.60;;
56523;SDS011;42422;47.540;18.712;2024-01-30T22:30:18;24.24;;;13.56;;
56523;SDS011;42422;47.540;18.712;2024-01-30T22:35:08;30.27;;;12.90;;
56523;SDS011;42422;47.540;18.712;2024-01-30T22:37:36;24.50;;;14.07;;
56523;SDS011;42422;47.540;18.712;2024-01-30T22:42:28;29.83;;;14.18;;
56523;SDS011;42422;47.540;18.712;2024-01-30T22:47:18;33.60;;;12.02;;
56523;SDS011;42422;47.540;18.712;2024-01-30T22:52:09;27.92;;;14.27;;
56523;SDS011;42422;47.540;18.712;2024-01-30T22:56:59;30.97;;;14.47;;
56523;SDS011;42422;47.540;18.712;2024-01-30T23:01:49;23.33;;;12.13;;
56523;SDS011;42422;47.540;18.712;2024-01-30T23:06:40;34.88;;;14.55;;
56523;SDS011;42422;47.540;18.712;2024-01-30T23:11:30;26.37;;;13.03;;
56523;SDS011;42422;47.540;18.712;2024-01-30T23:16:20;26.26;;;13.28;;
56523;SDS011;42422;47.540;18.712;2024-01-30T23:21:11;39.10;;;13.57;;
56523;SDS011;42422;47.540;18.712;2024-01-30T23:26:01;28.40;;;14.88;;
56523;SDS011;42422;47.540;18.712;2024-01-30T23:28:28;30.93;;;16.53;;
56523;SDS011;42422;47.540;18.712;2024-01-30T23:33:18;31.57;;;14.63;;
56523;SDS011;42422;47.540;18.712;2024-01-30T23:38:09;30.27;;;14.03;;
56523;SDS011;42422;47.540;18.712;2024-01-30T23:42:59;23.17;;;13.93;;
56523;SDS011;42422;47.540;18.712;2024-01-30T23:47:49;25.58;;;11.80;;
56523;SDS011;42422;47.540;18.712;2024-01-30T23:52:40;29.48;;;14.27;;
56523;SDS011;42422;47.540;18.712;2024-01-30T23:57:31;29.80;;;16.20;;
